sensor_id;sensor_type;location;lat;lon;timestamp;pressure;altitude;pressure_sealevel;temperature;humidity
78170;BME280;67412;49.892;14.490;2023-02-28T00:02:19;98249.88;;;-2.58;77.83
78170;BME280;67412;49.892;14.490;2023-02-28T00:04:45;98242.19;;;-2.61;77.80
78170;BME280;67412;49.892;14.490;2023-02-28T00:07:11;98247.84;;;-2.65;77.97
78170;BME280;67412;49.892;14.490;2023-02-28T00:09:36;98237.94;;;-2.62;77.69
78170;BME280;67412;49.892;14.490;2023-02-28T00:12:02;98242.28;;;-2.60;77.67
78170;BME280;67412;49.892;14.490;2023-02-28T00:14:38;98240.53;;;-2.61;77.80
78170;BME280;67412;49.892;14.490;2023-02-28T00:17:03;98237.94;;;-2.62;78.25
78170;BME280;67412;49.892;14.490;2023-02-28T00:19:29;98234.97;;;-2.55;77.63
78170;BME280;67412;49.892;14.490;2023-02-28T00:21:54;98240.16;;;-2.52;77.29
78170;BME280;67412;49.892;14.490;2023-02-28T00:24:19;98237.63;;;-2.52;77.03
78170;BME280;67412;49.892;14.490;2023-02-28T00:26:45;98231.50;;;-2.57;77.20
78170;BME280;67412;49.892;14.490;2023-02-28T00:29:10;98242.81;;;-2.49;77.00
78170;BME280;67412;49.892;14.490;2023-02-28T00:31:35;98239.53;;;-2.48;76.77
78170;BME280;67412;49.892;14.490;2023-02-28T00:34:01;98234.25;;;-2.53;76.75
78170;BME280;67412;49.892;14.490;2023-02-28T00:36:26;98238.56;;;-2.50;77.02
78170;BME280;67412;49.892;14.490;2023-02-28T00:38:52;98239.34;;;-2.51;77.24
78170;BME280;67412;49.892;14.490;2023-02-28T00:41:17;98239.44;;;-2.50;76.98
78170;BME280;67412;49.892;14.490;2023-02-28T00:43:43;98239.28;;;-2.53;76.67
78170;BME280;67412;49.892;14.490;2023-02-28T00:46:08;98231.34;;;-2.44;76.67
78170;BME280;67412;49.892;14.490;2023-02-28T00:48:34;98242.97;;;-2.46;76.30
78170;BME280;67412;49.892;14.490;2023-02-28T00:51:00;98236.53;;;-2.41;76.57
78170;BME280;67412;49.892;14.490;2023-02-28T00:53:25;98234.00;;;-2.41;76.28
78170;BME280;67412;49.892;14.490;2023-02-28T00:55:51;98238.03;;;-2.45;76.38
78170;BME280;67412;49.892;14.490;2023-02-28T00:58:16;98228.97;;;-2.41;76.08
78170;BME280;67412;49.892;14.490;2023-02-28T01:00:42;98228.13;;;-2.41;76.30
78170;BME280;67412;49.892;14.490;2023-02-28T01:03:07;98234.00;;;-2.41;76.11
78170;BME280;67412;49.892;14.490;2023-02-28T01:05:32;98224.19;;;-2.36;75.94
78170;BME280;67412;49.892;14.490;2023-02-28T01:07:58;98227.16;;;-2.44;75.61
78170;BME280;67412;49.892;14.490;2023-02-28T01:10:24;98227.50;;;-2.37;75.70
78170;BME280;67412;49.892;14.490;2023-02-28T01:12:50;98226.63;;;-2.38;75.41
78170;BME280;67412;49.892;14.490;2023-02-28T01:15:16;98230.06;;;-2.36;75.99
78170;BME280;67412;49.892;14.490;2023-02-28T01:17:41;98228.34;;;-2.37;75.61
78170;BME280;67412;49.892;14.490;2023-02-28T01:20:07;98229.28;;;-2.35;75.91
78170;BME280;67412;49.892;14.490;2023-02-28T01:22:34;98225.13;;;-2.34;75.68
78170;BME280;67412;49.892;14.490;2023-02-28T01:25:00;98232.97;;;-2.28;75.58
78170;BME280;67412;49.892;14.490;2023-02-28T01:27:25;98228.66;;;-2.31;75.55
78170;BME280;67412;49.892;14.490;2023-02-28T01:29:51;98221.19;;;-2.29;75.66
78170;BME280;67412;49.892;14.490;2023-02-28T01:32:17;98222.22;;;-2.26;75.63
78170;BME280;67412;49.892;14.490;2023-02-28T01:34:42;98223.84;;;-2.26;75.39
78170;BME280;67412;49.892;14.490;2023-02-28T01:37:08;98219.53;;;-2.29;75.39
78170;BME280;67412;49.892;14.490;2023-02-28T01:39:33;98222.69;;;-2.33;75.71
78170;BME280;67412;49.892;14.490;2023-02-28T01:41:58;98228.78;;;-2.28;75.58
78170;BME280;67412;49.892;14.490;2023-02-28T01:44:57;98219.69;;;-2.26;75.41
78170;BME280;67412;49.892;14.490;2023-02-28T01:47:27;98223.75;;;-2.28;75.67
78170;BME280;67412;49.892;14.490;2023-02-28T01:49:52;98226.38;;;-2.26;75.55
78170;BME280;67412;49.892;14.490;2023-02-28T01:52:18;98220.31;;;-2.30;75.65
78170;BME280;67412;49.892;14.490;2023-02-28T01:54:55;98220.09;;;-2.34;75.81
78170;BME280;67412;49.892;14.490;2023-02-28T01:57:29;98216.22;;;-2.28;76.14
78170;BME280;67412;49.892;14.490;2023-02-28T02:00:00;98212.00;;;-2.29;76.06
78170;BME280;67412;49.892;14.490;2023-02-28T02:02:27;98207.16;;;-2.24;75.88
78170;BME280;67412;49.892;14.490;2023-02-28T02:05:05;98203.78;;;-2.25;76.07
78170;BME280;67412;49.892;14.490;2023-02-28T02:07:35;98207.88;;;-2.27;76.09
78170;BME280;67412;49.892;14.490;2023-02-28T02:10:06;98210.31;;;-2.28;76.16
78170;BME280;67412;49.892;14.490;2023-02-28T02:13:02;98215.59;;;-2.24;75.93
78170;BME280;67412;49.892;14.490;2023-02-28T02:18:08;98209.38;;;-2.30;76.14
78170;BME280;67412;49.892;14.490;2023-02-28T02:24:07;98202.22;;;-2.23;76.18
78170;BME280;67412;49.892;14.490;2023-02-28T02:29:32;98204.97;;;-2.18;75.99
78170;BME280;67412;49.892;14.490;2023-02-28T02:40:39;98196.03;;;-2.29;76.42
78170;BME280;67412;49.892;14.490;2023-02-28T02:43:13;98197.72;;;-2.28;76.12
78170;BME280;67412;49.892;14.490;2023-02-28T02:45:52;98192.69;;;-2.28;76.27
78170;BME280;67412;49.892;14.490;2023-02-28T02:48:22;98199.25;;;-2.32;76.40
78170;BME280;67412;49.892;14.490;2023-02-28T02:50:54;98199.47;;;-2.27;76.80
78170;BME280;67412;49.892;14.490;2023-02-28T02:53:26;98197.69;;;-2.30;76.59
78170;BME280;67412;49.892;14.490;2023-02-28T02:55:54;98203.19;;;-2.37;77.38
78170;BME280;67412;49.892;14.490;2023-02-28T02:58:28;98202.72;;;-2.30;77.04
78170;BME280;67412;49.892;14.490;2023-02-28T03:00:58;98203.50;;;-2.31;77.11
78170;BME280;67412;49.892;14.490;2023-02-28T03:03:25;98207.66;;;-2.31;76.80
78170;BME280;67412;49.892;14.490;2023-02-28T03:05:57;98202.56;;;-2.33;76.98
78170;BME280;67412;49.892;14.490;2023-02-28T03:08:23;98199.81;;;-2.37;77.12
78170;BME280;67412;49.892;14.490;2023-02-28T03:10:50;98204.28;;;-2.32;77.13
78170;BME280;67412;49.892;14.490;2023-02-28T03:21:27;98199.03;;;-2.36;76.88
78170;BME280;67412;49.892;14.490;2023-02-28T03:24:16;98204.06;;;-2.36;76.73
78170;BME280;67412;49.892;14.490;2023-02-28T03:26:47;98206.72;;;-2.33;76.99
78170;BME280;67412;49.892;14.490;2023-02-28T03:29:16;98206.63;;;-2.35;77.02
78170;BME280;67412;49.892;14.490;2023-02-28T03:31:53;98209.94;;;-2.36;76.94
78170;BME280;67412;49.892;14.490;2023-02-28T03:34:32;98204.06;;;-2.36;77.12
78170;BME280;67412;49.892;14.490;2023-02-28T03:37:05;98207.34;;;-2.37;77.00
78170;BME280;67412;49.892;14.490;2023-02-28T03:39:37;98207.91;;;-2.43;77.50
78170;BME280;67412;49.892;14.490;2023-02-28T03:42:09;98198.06;;;-2.38;77.30
78170;BME280;67412;49.892;14.490;2023-02-28T03:44:57;98207.69;;;-2.48;77.45
78170;BME280;67412;49.892;14.490;2023-02-28T03:47:37;98207.59;;;-2.49;77.78
78170;BME280;67412;49.892;14.490;2023-02-28T03:50:08;98202.56;;;-2.49;78.09
78170;BME280;67412;49.892;14.490;2023-02-28T03:52:40;98208.31;;;-2.52;77.90
78170;BME280;67412;49.892;14.490;2023-02-28T03:55:10;98213.03;;;-2.58;78.17
78170;BME280;67412;49.892;14.490;2023-02-28T03:58:01;98202.91;;;-2.59;78.19
78170;BME280;67412;49.892;14.490;2023-02-28T04:00:35;98207.75;;;-2.62;78.83
78170;BME280;67412;49.892;14.490;2023-02-28T04:03:03;98208.72;;;-2.60;78.71
78170;BME280;67412;49.892;14.490;2023-02-28T04:05:29;98215.63;;;-2.72;78.86
78170;BME280;67412;49.892;14.490;2023-02-28T04:08:06;98209.03;;;-2.70;78.66
78170;BME280;67412;49.892;14.490;2023-02-28T04:10:32;98215.47;;;-2.75;78.68
78170;BME280;67412;49.892;14.490;2023-02-28T04:12:58;98214.38;;;-2.80;78.59
78170;BME280;67412;49.892;14.490;2023-02-28T04:15:23;98213.34;;;-2.84;78.86
78170;BME280;67412;49.892;14.490;2023-02-28T04:17:50;98217.66;;;-2.98;79.27
78170;BME280;67412;49.892;14.490;2023-02-28T04:20:15;98216.69;;;-3.00;79.27
78170;BME280;67412;49.892;14.490;2023-02-28T04:22:41;98218.28;;;-3.02;78.97
78170;BME280;67412;49.892;14.490;2023-02-28T04:25:06;98216.16;;;-3.10;79.23
78170;BME280;67412;49.892;14.490;2023-02-28T04:27:32;98216.69;;;-3.16;79.45
78170;BME280;67412;49.892;14.490;2023-02-28T04:29:58;98218.66;;;-3.26;79.35
78170;BME280;67412;49.892;14.490;2023-02-28T04:32:23;98225.22;;;-3.28;79.35
78170;BME280;67412;49.892;14.490;2023-02-28T04:34:48;98225.69;;;-3.35;79.38
78170;BME280;67412;49.892;14.490;2023-02-28T04:37:14;98219.31;;;-3.45;79.63
78170;BME280;67412;49.892;14.490;2023-02-28T04:39:40;98225.88;;;-3.47;79.57
78170;BME280;67412;49.892;14.490;2023-02-28T04:42:06;98223.38;;;-3.47;79.27
78170;BME280;67412;49.892;14.490;2023-02-28T04:44:31;98216.91;;;-3.58;79.40
78170;BME280;67412;49.892;14.490;2023-02-28T04:46:57;98219.09;;;-3.64;79.68
78170;BME280;67412;49.892;14.490;2023-02-28T04:49:22;98226.00;;;-3.60;79.16
78170;BME280;67412;49.892;14.490;2023-02-28T04:51:48;98222.53;;;-3.62;79.46
78170;BME280;67412;49.892;14.490;2023-02-28T04:54:15;98224.72;;;-3.68;79.48
78170;BME280;67412;49.892;14.490;2023-02-28T04:56:41;98219.09;;;-3.79;80.06
78170;BME280;67412;49.892;14.490;2023-02-28T04:59:06;98226.81;;;-3.76;79.59
78170;BME280;67412;49.892;14.490;2023-02-28T05:01:33;98223.78;;;-3.85;80.15
78170;BME280;67412;49.892;14.490;2023-02-28T05:04:01;98228.72;;;-3.86;79.95
78170;BME280;67412;49.892;14.490;2023-02-28T05:06:27;98232.94;;;-3.85;79.96
78170;BME280;67412;49.892;14.490;2023-02-28T05:08:53;98231.03;;;-3.90;79.96
78170;BME280;67412;49.892;14.490;2023-02-28T05:11:23;98223.28;;;-3.94;79.94
78170;BME280;67412;49.892;14.490;2023-02-28T05:13:49;98230.81;;;-3.94;79.72
78170;BME280;67412;49.892;14.490;2023-02-28T05:16:16;98239.16;;;-3.94;79.79
78170;BME280;67412;49.892;14.490;2023-02-28T05:18:42;98227.88;;;-4.02;80.22
78170;BME280;67412;49.892;14.490;2023-02-28T05:21:23;98236.66;;;-4.08;80.35
78170;BME280;67412;49.892;14.490;2023-02-28T05:23:52;98241.59;;;-4.10;80.11
78170;BME280;67412;49.892;14.490;2023-02-28T05:26:18;98246.78;;;-4.07;79.89
78170;BME280;67412;49.892;14.490;2023-02-28T05:28:43;98245.66;;;-4.12;80.14
78170;BME280;67412;49.892;14.490;2023-02-28T05:31:12;98244.78;;;-4.12;80.26
78170;BME280;67412;49.892;14.490;2023-02-28T05:33:38;98244.88;;;-4.11;80.11
78170;BME280;67412;49.892;14.490;2023-02-28T05:36:05;98252.25;;;-4.14;80.32
78170;BME280;67412;49.892;14.490;2023-02-28T05:38:31;98256.22;;;-4.17;80.42
78170;BME280;67412;49.892;14.490;2023-02-28T05:40:56;98255.69;;;-4.12;80.23
78170;BME280;67412;49.892;14.490;2023-02-28T05:43:22;98254.59;;;-4.17;80.04
78170;BME280;67412;49.892;14.490;2023-02-28T05:45:47;98255.00;;;-4.24;80.30
78170;BME280;67412;49.892;14.490;2023-02-28T05:48:13;98254.03;;;-4.26;80.22
78170;BME280;67412;49.892;14.490;2023-02-28T05:50:38;98261.50;;;-4.27;80.38
78170;BME280;67412;49.892;14.490;2023-02-28T05:53:04;98260.78;;;-4.25;80.62
78170;BME280;67412;49.892;14.490;2023-02-28T05:55:29;98258.00;;;-4.29;80.44
78170;BME280;67412;49.892;14.490;2023-02-28T05:57:55;98264.66;;;-4.30;80.35
78170;BME280;67412;49.892;14.490;2023-02-28T06:00:21;98257.66;;;-4.35;80.64
78170;BME280;67412;49.892;14.490;2023-02-28T06:02:47;98266.41;;;-4.29;80.12
78170;BME280;67412;49.892;14.490;2023-02-28T06:05:17;98268.16;;;-4.28;80.27
78170;BME280;67412;49.892;14.490;2023-02-28T06:07:43;98272.88;;;-4.32;80.46
78170;BME280;67412;49.892;14.490;2023-02-28T06:10:10;98272.78;;;-4.34;80.80
78170;BME280;67412;49.892;14.490;2023-02-28T06:12:36;98275.72;;;-4.41;80.49
78170;BME280;67412;49.892;14.490;2023-02-28T06:15:02;98275.13;;;-4.37;80.78
78170;BME280;67412;49.892;14.490;2023-02-28T06:17:28;98277.03;;;-4.33;80.18
78170;BME280;67412;49.892;14.490;2023-02-28T06:19:53;98286.47;;;-4.29;80.16
78170;BME280;67412;49.892;14.490;2023-02-28T06:22:18;98289.84;;;-4.28;80.03
78170;BME280;67412;49.892;14.490;2023-02-28T06:24:44;98281.63;;;-4.26;80.37
78170;BME280;67412;49.892;14.490;2023-02-28T06:27:09;98289.16;;;-4.26;80.00
78170;BME280;67412;49.892;14.490;2023-02-28T06:29:35;98286.81;;;-4.23;80.04
78170;BME280;67412;49.892;14.490;2023-02-28T06:32:01;98295.03;;;-4.25;80.49
78170;BME280;67412;49.892;14.490;2023-02-28T06:34:27;98293.41;;;-4.25;80.02
78170;BME280;67412;49.892;14.490;2023-02-28T06:36:53;98288.56;;;-4.22;80.30
78170;BME280;67412;49.892;14.490;2023-02-28T06:39:18;98293.41;;;-4.25;80.38
78170;BME280;67412;49.892;14.490;2023-02-28T06:41:44;98299.63;;;-4.18;79.92
78170;BME280;67412;49.892;14.490;2023-02-28T06:44:15;98302.59;;;-4.11;79.59
78170;BME280;67412;49.892;14.490;2023-02-28T06:46:42;98301.88;;;-4.08;79.75
78170;BME280;67412;49.892;14.490;2023-02-28T06:49:09;98307.72;;;-3.95;79.11
78170;BME280;67412;49.892;14.490;2023-02-28T06:51:35;98308.81;;;-3.90;79.40
78170;BME280;67412;49.892;14.490;2023-02-28T06:54:01;98311.00;;;-3.81;78.99
78170;BME280;67412;49.892;14.490;2023-02-28T06:56:26;98314.06;;;-3.72;78.90
78170;BME280;67412;49.892;14.490;2023-02-28T06:58:52;98310.41;;;-3.62;77.87
78170;BME280;67412;49.892;14.490;2023-02-28T07:01:21;98311.81;;;-3.53;76.99
78170;BME280;67412;49.892;14.490;2023-02-28T07:03:49;98318.03;;;-3.46;76.80
78170;BME280;67412;49.892;14.490;2023-02-28T07:06:18;98311.94;;;-3.35;77.04
78170;BME280;67412;49.892;14.490;2023-02-28T07:08:44;98312.00;;;-3.19;75.64
78170;BME280;67412;49.892;14.490;2023-02-28T07:11:09;98311.38;;;-3.15;75.40
78170;BME280;67412;49.892;14.490;2023-02-28T07:13:35;98315.63;;;-3.14;74.68
78170;BME280;67412;49.892;14.490;2023-02-28T07:16:03;98315.16;;;-3.07;74.11
78170;BME280;67412;49.892;14.490;2023-02-28T07:18:29;98322.34;;;-2.98;73.09
78170;BME280;67412;49.892;14.490;2023-02-28T07:20:55;98326.16;;;-2.90;72.99
78170;BME280;67412;49.892;14.490;2023-02-28T07:23:21;98321.69;;;-2.79;72.87
78170;BME280;67412;49.892;14.490;2023-02-28T07:25:47;98322.47;;;-2.80;71.93
78170;BME280;67412;49.892;14.490;2023-02-28T07:28:13;98322.19;;;-2.70;71.45
78170;BME280;67412;49.892;14.490;2023-02-28T07:30:39;98316.44;;;-2.68;69.86
78170;BME280;67412;49.892;14.490;2023-02-28T07:33:05;98319.22;;;-2.63;69.89
78170;BME280;67412;49.892;14.490;2023-02-28T07:35:30;98321.41;;;-2.53;69.49
78170;BME280;67412;49.892;14.490;2023-02-28T07:37:59;98331.97;;;-2.44;69.29
78170;BME280;67412;49.892;14.490;2023-02-28T07:40:24;98335.72;;;-2.36;68.67
78170;BME280;67412;49.892;14.490;2023-02-28T07:42:50;98338.47;;;-2.31;68.47
78170;BME280;67412;49.892;14.490;2023-02-28T07:45:15;98345.75;;;-2.21;67.22
78170;BME280;67412;49.892;14.490;2023-02-28T07:47:42;98325.63;;;-2.21;67.08
78170;BME280;67412;49.892;14.490;2023-02-28T07:50:11;98336.50;;;-2.21;67.06
78170;BME280;67412;49.892;14.490;2023-02-28T07:52:37;98342.34;;;-2.06;66.32
78170;BME280;67412;49.892;14.490;2023-02-28T07:55:04;98345.41;;;-1.95;66.25
78170;BME280;67412;49.892;14.490;2023-02-28T07:57:30;98346.25;;;-1.95;65.86
78170;BME280;67412;49.892;14.490;2023-02-28T07:59:55;98340.44;;;-1.93;64.82
78170;BME280;67412;49.892;14.490;2023-02-28T08:02:21;98348.28;;;-1.87;63.68
78170;BME280;67412;49.892;14.490;2023-02-28T08:04:46;98346.09;;;-1.81;64.80
78170;BME280;67412;49.892;14.490;2023-02-28T08:07:14;98340.19;;;-1.66;64.69
78170;BME280;67412;49.892;14.490;2023-02-28T08:09:40;98336.59;;;-1.53;64.13
78170;BME280;67412;49.892;14.490;2023-02-28T08:12:06;98343.22;;;-1.55;63.19
78170;BME280;67412;49.892;14.490;2023-02-28T08:14:32;98331.41;;;-1.56;62.54
78170;BME280;67412;49.892;14.490;2023-02-28T08:16:57;98342.25;;;-1.57;63.20
78170;BME280;67412;49.892;14.490;2023-02-28T08:19:23;98336.25;;;-1.43;63.14
78170;BME280;67412;49.892;14.490;2023-02-28T08:21:48;98339.69;;;-1.41;62.11
78170;BME280;67412;49.892;14.490;2023-02-28T08:24:14;98341.59;;;-1.37;62.46
78170;BME280;67412;49.892;14.490;2023-02-28T08:26:39;98342.69;;;-1.32;62.57
78170;BME280;67412;49.892;14.490;2023-02-28T08:29:05;98338.06;;;-1.23;61.69
78170;BME280;67412;49.892;14.490;2023-02-28T08:31:30;98340.22;;;-1.30;61.24
78170;BME280;67412;49.892;14.490;2023-02-28T08:33:55;98340.03;;;-1.17;62.04
78170;BME280;67412;49.892;14.490;2023-02-28T08:36:24;98332.97;;;-1.24;61.41
78170;BME280;67412;49.892;14.490;2023-02-28T08:38:50;98338.94;;;-1.05;62.02
78170;BME280;67412;49.892;14.490;2023-02-28T08:41:15;98339.16;;;-1.00;61.73
78170;BME280;67412;49.892;14.490;2023-02-28T08:43:41;98332.44;;;-0.82;61.05
78170;BME280;67412;49.892;14.490;2023-02-28T08:46:07;98342.59;;;-0.80;60.95
78170;BME280;67412;49.892;14.490;2023-02-28T08:48:34;98343.03;;;-0.89;60.49
78170;BME280;67412;49.892;14.490;2023-02-28T08:51:04;98340.28;;;-0.93;60.66
78170;BME280;67412;49.892;14.490;2023-02-28T08:53:29;98344.16;;;-0.82;61.20
78170;BME280;67412;49.892;14.490;2023-02-28T08:55:56;98343.09;;;-0.70;60.95
78170;BME280;67412;49.892;14.490;2023-02-28T08:58:22;98347.91;;;-0.74;60.17
78170;BME280;67412;49.892;14.490;2023-02-28T09:00:47;98342.38;;;-0.85;60.38
78170;BME280;67412;49.892;14.490;2023-02-28T09:03:12;98343.38;;;-0.81;61.53
78170;BME280;67412;49.892;14.490;2023-02-28T09:05:38;98341.34;;;-0.71;61.07
78170;BME280;67412;49.892;14.490;2023-02-28T09:08:03;98338.13;;;-0.68;61.33
78170;BME280;67412;49.892;14.490;2023-02-28T09:10:29;98337.47;;;-0.64;61.62
78170;BME280;67412;49.892;14.490;2023-02-28T09:12:54;98336.00;;;-0.41;61.68
78170;BME280;67412;49.892;14.490;2023-02-28T09:15:19;98342.09;;;-0.36;61.52
78170;BME280;67412;49.892;14.490;2023-02-28T09:17:45;98336.59;;;-0.28;60.49
78170;BME280;67412;49.892;14.490;2023-02-28T09:20:11;98327.56;;;-0.23;61.06
78170;BME280;67412;49.892;14.490;2023-02-28T09:22:36;98331.13;;;-0.18;60.64
78170;BME280;67412;49.892;14.490;2023-02-28T09:25:02;98338.97;;;-0.31;60.47
78170;BME280;67412;49.892;14.490;2023-02-28T09:27:27;98326.50;;;-0.28;61.64
78170;BME280;67412;49.892;14.490;2023-02-28T09:29:53;98329.16;;;-0.06;61.11
78170;BME280;67412;49.892;14.490;2023-02-28T09:32:18;98325.88;;;-0.03;59.66
78170;BME280;67412;49.892;14.490;2023-02-28T09:34:44;98323.44;;;-0.02;59.05
78170;BME280;67412;49.892;14.490;2023-02-28T09:37:09;98324.03;;;-0.07;60.51
78170;BME280;67412;49.892;14.490;2023-02-28T09:39:34;98328.19;;;0.12;60.32
78170;BME280;67412;49.892;14.490;2023-02-28T09:42:02;98331.31;;;0.25;59.47
78170;BME280;67412;49.892;14.490;2023-02-28T09:44:37;98328.38;;;0.35;59.88
78170;BME280;67412;49.892;14.490;2023-02-28T09:47:39;98330.38;;;0.23;58.63
78170;BME280;67412;49.892;14.490;2023-02-28T09:50:22;98324.81;;;0.11;59.60
78170;BME280;67412;49.892;14.490;2023-02-28T09:52:54;98330.06;;;0.16;60.10
78170;BME280;67412;49.892;14.490;2023-02-28T09:57:54;98323.44;;;0.38;59.85
78170;BME280;67412;49.892;14.490;2023-02-28T10:00:30;98324.38;;;0.40;59.50
78170;BME280;67412;49.892;14.490;2023-02-28T10:05:30;98327.94;;;0.45;60.30
78170;BME280;67412;49.892;14.490;2023-02-28T10:08:14;98338.63;;;0.59;60.30
78170;BME280;67412;49.892;14.490;2023-02-28T10:13:27;98341.41;;;0.65;58.79
78170;BME280;67412;49.892;14.490;2023-02-28T10:16:07;98341.31;;;0.43;59.54
78170;BME280;67412;49.892;14.490;2023-02-28T10:18:46;98348.47;;;0.53;58.93
78170;BME280;67412;49.892;14.490;2023-02-28T10:21:47;98342.50;;;0.51;59.37
78170;BME280;67412;49.892;14.490;2023-02-28T10:27:06;98347.56;;;0.51;58.78
78170;BME280;67412;49.892;14.490;2023-02-28T10:29:43;98344.25;;;0.52;58.99
78170;BME280;67412;49.892;14.490;2023-02-28T10:32:11;98348.75;;;0.59;59.03
78170;BME280;67412;49.892;14.490;2023-02-28T10:34:39;98342.22;;;0.85;60.28
78170;BME280;67412;49.892;14.490;2023-02-28T10:37:05;98347.75;;;0.76;58.50
78170;BME280;67412;49.892;14.490;2023-02-28T10:39:44;98336.72;;;0.74;59.01
78170;BME280;67412;49.892;14.490;2023-02-28T10:42:37;98338.69;;;0.81;59.25
78170;BME280;67412;49.892;14.490;2023-02-28T10:45:11;98330.53;;;0.68;59.28
78170;BME280;67412;49.892;14.490;2023-02-28T10:47:41;98333.38;;;0.75;58.96
78170;BME280;67412;49.892;14.490;2023-02-28T10:55:42;98333.75;;;0.84;58.29
78170;BME280;67412;49.892;14.490;2023-02-28T10:58:22;98328.03;;;1.11;59.75
78170;BME280;67412;49.892;14.490;2023-02-28T11:00:48;98329.81;;;1.13;58.74
78170;BME280;67412;49.892;14.490;2023-02-28T11:03:32;98333.78;;;1.07;58.65
78170;BME280;67412;49.892;14.490;2023-02-28T11:06:04;98322.59;;;1.22;58.57
78170;BME280;67412;49.892;14.490;2023-02-28T11:08:31;98325.81;;;1.40;56.72
78170;BME280;67412;49.892;14.490;2023-02-28T11:10:59;98323.47;;;1.23;56.45
78170;BME280;67412;49.892;14.490;2023-02-28T11:13:34;98322.88;;;1.30;56.66
78170;BME280;67412;49.892;14.490;2023-02-28T11:16:06;98317.75;;;1.28;58.66
78170;BME280;67412;49.892;14.490;2023-02-28T11:20:59;98315.63;;;1.39;58.58
78170;BME280;67412;49.892;14.490;2023-02-28T11:23:30;98317.53;;;1.22;56.12
78170;BME280;67412;49.892;14.490;2023-02-28T11:26:00;98315.97;;;1.48;56.36
78170;BME280;67412;49.892;14.490;2023-02-28T11:28:35;98314.13;;;1.44;57.71
78170;BME280;67412;49.892;14.490;2023-02-28T11:33:53;98309.16;;;1.69;58.22
78170;BME280;67412;49.892;14.490;2023-02-28T11:38:47;98303.22;;;1.69;55.81
78170;BME280;67412;49.892;14.490;2023-02-28T11:44:03;98303.19;;;1.67;56.74
78170;BME280;67412;49.892;14.490;2023-02-28T11:46:39;98296.28;;;1.63;55.21
78170;BME280;67412;49.892;14.490;2023-02-28T11:51:49;98289.41;;;1.83;55.19
78170;BME280;67412;49.892;14.490;2023-02-28T11:54:51;98290.28;;;1.83;54.91
78170;BME280;67412;49.892;14.490;2023-02-28T11:57:35;98294.81;;;1.70;54.63
78170;BME280;67412;49.892;14.490;2023-02-28T12:11:39;98277.38;;;2.26;55.09
78170;BME280;67412;49.892;14.490;2023-02-28T12:17:42;98285.66;;;2.21;55.08
78170;BME280;67412;49.892;14.490;2023-02-28T12:19:45;98275.72;;;2.27;54.46
78170;BME280;67412;49.892;14.490;2023-02-28T12:22:34;98273.19;;;2.27;54.17
78170;BME280;67412;49.892;14.490;2023-02-28T12:27:55;98268.19;;;2.55;54.52
78170;BME280;67412;49.892;14.490;2023-02-28T12:30:31;98263.72;;;2.73;53.26
78170;BME280;67412;49.892;14.490;2023-02-28T12:33:13;98260.50;;;2.79;54.06
78170;BME280;67412;49.892;14.490;2023-02-28T12:35:57;98261.75;;;2.65;54.28
78170;BME280;67412;49.892;14.490;2023-02-28T12:39:00;98255.31;;;2.49;54.36
78170;BME280;67412;49.892;14.490;2023-02-28T12:44:35;98252.91;;;2.27;54.05
78170;BME280;67412;49.892;14.490;2023-02-28T12:47:04;98258.06;;;2.30;54.26
78170;BME280;67412;49.892;14.490;2023-02-28T12:49:41;98254.81;;;2.34;52.95
78170;BME280;67412;49.892;14.490;2023-02-28T12:52:07;98257.31;;;2.32;54.13
78170;BME280;67412;49.892;14.490;2023-02-28T12:57:31;98256.56;;;2.35;54.83
78170;BME280;67412;49.892;14.490;2023-02-28T13:00:10;98244.03;;;2.66;53.46
78170;BME280;67412;49.892;14.490;2023-02-28T13:10:44;98249.09;;;2.66;52.49
78170;BME280;67412;49.892;14.490;2023-02-28T13:13:22;98253.41;;;2.96;53.83
78170;BME280;67412;49.892;14.490;2023-02-28T13:16:06;98248.91;;;2.87;53.54
78170;BME280;67412;49.892;14.490;2023-02-28T13:21:07;98251.84;;;3.01;53.83
78170;BME280;67412;49.892;14.490;2023-02-28T13:26:12;98251.06;;;3.02;53.06
78170;BME280;67412;49.892;14.490;2023-02-28T13:31:22;98252.16;;;3.10;52.08
78170;BME280;67412;49.892;14.490;2023-02-28T13:38:58;98244.72;;;2.87;51.91
78170;BME280;67412;49.892;14.490;2023-02-28T13:46:35;98244.84;;;3.20;51.17
78170;BME280;67412;49.892;14.490;2023-02-28T13:51:49;98244.84;;;3.50;50.97
78170;BME280;67412;49.892;14.490;2023-02-28T13:59:51;98240.84;;;3.58;51.48
78170;BME280;67412;49.892;14.490;2023-02-28T14:05:10;98236.19;;;4.05;51.78
78170;BME280;67412;49.892;14.490;2023-02-28T14:07:45;98237.03;;;4.05;51.07
78170;BME280;67412;49.892;14.490;2023-02-28T14:13:00;98231.50;;;3.57;50.02
78170;BME280;67412;49.892;14.490;2023-02-28T14:18:11;98226.00;;;3.42;52.48
78170;BME280;67412;49.892;14.490;2023-02-28T14:20:40;98226.78;;;3.39;52.18
78170;BME280;67412;49.892;14.490;2023-02-28T14:31:24;98227.75;;;2.86;52.91
78170;BME280;67412;49.892;14.490;2023-02-28T14:36:39;98230.22;;;2.85;53.01
78170;BME280;67412;49.892;14.490;2023-02-28T14:39:16;98222.84;;;2.92;53.05
78170;BME280;67412;49.892;14.490;2023-02-28T14:41:44;98224.94;;;3.06;53.18
78170;BME280;67412;49.892;14.490;2023-02-28T14:44:23;98232.84;;;3.15;54.28
78170;BME280;67412;49.892;14.490;2023-02-28T14:46:51;98226.44;;;2.99;53.88
78170;BME280;67412;49.892;14.490;2023-02-28T14:51:50;98227.72;;;2.31;54.48
78170;BME280;67412;49.892;14.490;2023-02-28T14:54:26;98226.44;;;2.19;56.35
78170;BME280;67412;49.892;14.490;2023-02-28T14:56:52;98230.69;;;2.20;55.17
78170;BME280;67412;49.892;14.490;2023-02-28T14:59:33;98225.91;;;2.29;55.03
78170;BME280;67412;49.892;14.490;2023-02-28T15:02:24;98219.88;;;2.77;55.47
78170;BME280;67412;49.892;14.490;2023-02-28T15:04:58;98217.09;;;2.70;54.92
78170;BME280;67412;49.892;14.490;2023-02-28T15:07:25;98225.91;;;2.81;54.16
78170;BME280;67412;49.892;14.490;2023-02-28T15:10:29;98222.97;;;2.42;55.30
78170;BME280;67412;49.892;14.490;2023-02-28T15:13:00;98229.16;;;2.50;55.10
78170;BME280;67412;49.892;14.490;2023-02-28T15:15:54;98222.28;;;3.01;53.39
78170;BME280;67412;49.892;14.490;2023-02-28T15:18:37;98225.13;;;3.41;52.03
78170;BME280;67412;49.892;14.490;2023-02-28T15:21:15;98218.41;;;4.05;50.10